Terminal Aerodrome Forecast
Issued by NWS Charleston, WV

Current Version | Previous Version | Graphics & Text | Print | Product List | Glossary On
Versions: 1 2 3 4 5 6 7 8 9 10 11 12 13 14 15 16 17 18 19 20 21
000
FTUS41 KRLX 231700 RRA
TAFCRW
TAF
KCRW 231751Z 2318/2418 13003KT P6SM SCT045
     FM232100 14005KT P6SM BKN045
     FM240300 14004KT 6SM -SHRA OVC040
     FM240600 13003KT 4SM SHRA BR OVC025
     FM241200 16008KT P6SM OVC040=

USA.gov is the U.S. government's official web portal to all federal, state and local government web resources and services.